PRIVATE WETTERSTATION BILLIGHEIM-ALLFELD                       ZURCK
Wetterdaten: Dienstag, 30.05.2017
Datum Zeit Temp. A. Temp. A. min Temp. A. max Feuchte A. Luftdruck Regen Wind Richtung Richtung Sonnenschein ET Solar Taupunkt Windchill Windben Empfang
30.05.2017 00:00 21,4 C 21,4 C 21,5 C 80 % 1011,1 hPa 0,0 l/m 0,0 km/h (0 Bft) N 0 0 min 0,025 mm 0 W/m 17,8 C 21,4 C 0,0 km/h (0 Bft) 100 %
30.05.2017 00:10 21,4 C 21,4 C 21,4 C 81 % 1011,1 hPa 0,0 l/m 0,0 km/h (0 Bft) N 0 0 min 0,000 mm 0 W/m 18,0 C 21,4 C 0,0 km/h (0 Bft) 100 %
30.05.2017 00:20 21,3 C 21,3 C 21,4 C 80 % 1011,0 hPa 0,0 l/m 0,0 km/h (0 Bft) N 0 0 min 0,000 mm 0 W/m 17,7 C 21,3 C 0,0 km/h (0 Bft) 100 %
30.05.2017 00:30 21,2 C 21,2 C 21,3 C 80 % 1011,0 hPa 0,0 l/m 0,0 km/h (0 Bft) N 0 0 min 0,000 mm 0 W/m 17,6 C 21,2 C 0,0 km/h (0 Bft) 100 %
30.05.2017 00:40 21,1 C 21,1 C 21,2 C 80 % 1011,0 hPa 0,0 l/m 0,0 km/h (0 Bft) NW 315 0 min 0,000 mm 0 W/m 17,5 C 21,1 C 3,2 km/h (1 Bft) 100 %
30.05.2017 00:50 20,9 C 20,9 C 21,1 C 81 % 1011,0 hPa 0,0 l/m 0,0 km/h (0 Bft) NW 315 0 min 0,000 mm 0 W/m 17,5 C 20,9 C 3,2 km/h (1 Bft) 100 %
30.05.2017 01:00 20,7 C 20,7 C 20,9 C 83 % 1011,1 hPa 0,0 l/m 0,0 km/h (0 Bft) NW 315 0 min 0,025 mm 0 W/m 17,7 C 20,7 C 4,8 km/h (1 Bft) 100 %
30.05.2017 01:10 20,5 C 20,5 C 20,7 C 83 % 1011,2 hPa 0,0 l/m 0,0 km/h (0 Bft) N 0 0 min 0,000 mm 0 W/m 17,5 C 20,5 C 0,0 km/h (0 Bft) 100 %
30.05.2017 01:20 20,3 C 20,3 C 20,5 C 84 % 1011,2 hPa 0,0 l/m 0,0 km/h (0 Bft) N 0 0 min 0,000 mm 0 W/m 17,5 C 20,3 C 0,0 km/h (0 Bft) 100 %
30.05.2017 01:30 20,1 C 20,1 C 20,3 C 84 % 1011,1 hPa 0,0 l/m 0,0 km/h (0 Bft) N 0 0 min 0,000 mm 0 W/m 17,3 C 20,1 C 0,0 km/h (0 Bft) 100 %
30.05.2017 01:40 19,9 C 19,9 C 20,1 C 85 % 1011,0 hPa 0,0 l/m 0,0 km/h (0 Bft) NW 315 0 min 0,000 mm 0 W/m 17,3 C 19,9 C 1,6 km/h (1 Bft) 100 %
30.05.2017 01:50 19,8 C 19,8 C 19,9 C 86 % 1011,0 hPa 0,0 l/m 0,0 km/h (0 Bft) N 0 0 min 0,000 mm 0 W/m 17,4 C 19,8 C 0,0 km/h (0 Bft) 100 %
30.05.2017 02:00 19,7 C 19,7 C 19,8 C 86 % 1011,0 hPa 0,0 l/m 0,0 km/h (0 Bft) N 0 0 min 0,025 mm 0 W/m 17,3 C 19,7 C 0,0 km/h (0 Bft) 100 %
30.05.2017 02:10 19,6 C 19,6 C 19,7 C 86 % 1010,9 hPa 0,0 l/m 0,0 km/h (0 Bft) N 0 0 min 0,000 mm 0 W/m 17,2 C 19,6 C 0,0 km/h (0 Bft) 100 %
30.05.2017 02:20 19,4 C 19,4 C 19,6 C 87 % 1011,0 hPa 0,0 l/m 0,0 km/h (0 Bft) NW 315 0 min 0,000 mm 0 W/m 17,2 C 19,4 C 3,2 km/h (1 Bft) 100 %
30.05.2017 02:30 19,3 C 19,3 C 19,4 C 87 % 1011,0 hPa 0,0 l/m 0,0 km/h (0 Bft) N 0 0 min 0,000 mm 0 W/m 17,1 C 19,3 C 0,0 km/h (0 Bft) 100 %
30.05.2017 02:40 19,2 C 19,2 C 19,3 C 87 % 1011,1 hPa 0,0 l/m 1,6 km/h (1 Bft) W-NW 292 0 min 0,000 mm 0 W/m 17,0 C 19,2 C 6,4 km/h (2 Bft) 100 %
30.05.2017 02:50 18,8 C 18,8 C 19,2 C 89 % 1011,8 hPa 0,0 l/m 8,0 km/h (2 Bft) S-SO 157 0 min 0,000 mm 0 W/m 16,9 C 18,1 C 14,5 km/h (3 Bft) 100 %
30.05.2017 03:00 19,3 C 18,8 C 19,3 C 86 % 1012,3 hPa 0,0 l/m 12,9 km/h (3 Bft) SO 135 0 min 0,025 mm 0 W/m 16,9 C 17,0 C 25,7 km/h (4 Bft) 100 %
30.05.2017 03:10 19,3 C 19,3 C 19,4 C 81 % 1012,4 hPa 0,0 l/m 17,7 km/h (3 Bft) S-SW 202 0 min 0,000 mm 0 W/m 16,0 C 15,8 C 40,2 km/h (6 Bft) 100 %
30.05.2017 03:20 18,9 C 18,9 C 19,3 C 83 % 1012,8 hPa 0,8 l/m 11,3 km/h (2 Bft) S-SW 202 0 min 0,000 mm 0 W/m 15,9 C 17,0 C 30,6 km/h (5 Bft) 100 %
30.05.2017 03:30 18,2 C 18,2 C 18,9 C 86 % 1012,6 hPa 1,2 l/m 6,4 km/h (2 Bft) SO 135 0 min 0,000 mm 0 W/m 15,8 C 18,2 C 17,7 km/h (3 Bft) 100 %
30.05.2017 03:40 17,8 C 17,8 C 18,1 C 86 % 1012,4 hPa 0,6 l/m 3,2 km/h (1 Bft) S-SW 202 0 min 0,000 mm 0 W/m 15,4 C 17,8 C 16,1 km/h (3 Bft) 100 %
30.05.2017 03:50 18,0 C 17,8 C 18,0 C 86 % 1012,4 hPa 0,2 l/m 6,4 km/h (2 Bft) SW 225 0 min 0,000 mm 0 W/m 15,6 C 18,0 C 20,9 km/h (4 Bft) 100 %
30.05.2017 04:00 18,0 C 18,0 C 18,0 C 87 % 1012,3 hPa 0,2 l/m 4,8 km/h (1 Bft) SW 225 0 min 0,025 mm 0 W/m 15,8 C 18,0 C 16,1 km/h (3 Bft) 100 %
30.05.2017 04:10 17,9 C 17,9 C 18,0 C 86 % 1012,0 hPa 0,4 l/m 8,0 km/h (2 Bft) W-SW 247 0 min 0,000 mm 0 W/m 15,5 C 17,1 C 24,1 km/h (4 Bft) 100 %
30.05.2017 04:20 17,7 C 17,7 C 17,9 C 87 % 1012,3 hPa 0,6 l/m 4,8 km/h (1 Bft) W 270 0 min 0,000 mm 0 W/m 15,5 C 17,7 C 14,5 km/h (3 Bft) 100 %
30.05.2017 04:30 17,5 C 17,5 C 17,7 C 88 % 1012,4 hPa 0,2 l/m 0,0 km/h (0 Bft) W 270 0 min 0,000 mm 0 W/m 15,5 C 17,5 C 9,7 km/h (2 Bft) 100 %
30.05.2017 04:40 17,1 C 17,1 C 17,5 C 88 % 1012,1 hPa 0,4 l/m 0,0 km/h (0 Bft) N 0 0 min 0,000 mm 0 W/m 15,1 C 17,1 C 0,0 km/h (0 Bft) 100 %
30.05.2017 04:50 16,8 C 16,8 C 17,1 C 89 % 1011,9 hPa 0,4 l/m 0,0 km/h (0 Bft) NW 315 0 min 0,000 mm 0 W/m 15,0 C 16,8 C 1,6 km/h (1 Bft) 100 %
30.05.2017 05:00 16,6 C 16,6 C 16,8 C 89 % 1011,9 hPa 0,4 l/m 0,0 km/h (0 Bft) N 0 0 min 0,025 mm 0 W/m 14,8 C 16,6 C 0,0 km/h (0 Bft) 100 %
30.05.2017 05:10 16,4 C 16,4 C 16,6 C 90 % 1011,9 hPa 0,0 l/m 0,0 km/h (0 Bft) N 0 0 min 0,000 mm 0 W/m 14,8 C 16,4 C 0,0 km/h (0 Bft) 100 %
30.05.2017 05:20 16,2 C 16,2 C 16,4 C 90 % 1011,5 hPa 0,0 l/m 0,0 km/h (0 Bft) N-NW 337 0 min 0,000 mm 0 W/m 14,6 C 16,2 C 1,6 km/h (1 Bft) 100 %
30.05.2017 05:30 16,1 C 16,1 C 16,2 C 90 % 1011,6 hPa 0,0 l/m 0,0 km/h (0 Bft) N-NO 22 0 min 0,000 mm 0 W/m 14,5 C 16,1 C 1,6 km/h (1 Bft) 100 %
30.05.2017 05:40 16,1 C 16,1 C 16,1 C 90 % 1011,7 hPa 0,0 l/m 4,8 km/h (1 Bft) S-SO 157 0 min 0,000 mm 0 W/m 14,5 C 16,1 C 17,7 km/h (3 Bft) 100 %
30.05.2017 05:50 16,1 C 16,1 C 16,1 C 90 % 1011,8 hPa 0,0 l/m 1,6 km/h (1 Bft) O-SO 112 0 min 0,000 mm 0 W/m 14,5 C 16,1 C 9,7 km/h (2 Bft) 100 %
30.05.2017 06:00 16,0 C 16,0 C 16,1 C 90 % 1011,7 hPa 0,0 l/m 0,0 km/h (0 Bft) O 90 0 min 0,000 mm 5 W/m 14,4 C 16,0 C 1,6 km/h (1 Bft) 100 %
30.05.2017 06:10 16,1 C 16,0 C 16,1 C 90 % 1011,9 hPa 0,0 l/m 0,0 km/h (0 Bft) O 90 0 min 0,000 mm 12 W/m 14,5 C 16,1 C 8,0 km/h (2 Bft) 99 %
30.05.2017 06:20 16,1 C 16,1 C 16,1 C 90 % 1012,1 hPa 0,0 l/m 1,6 km/h (1 Bft) S-SO 157 0 min 0,000 mm 18 W/m 14,5 C 16,1 C 12,9 km/h (3 Bft) 100 %
30.05.2017 06:30 16,1 C 16,1 C 16,2 C 91 % 1011,7 hPa 0,0 l/m 0,0 km/h (0 Bft) O-SO 112 0 min 0,000 mm 23 W/m 14,6 C 16,1 C 8,0 km/h (2 Bft) 100 %
30.05.2017 06:40 16,1 C 16,1 C 16,2 C 91 % 1012,1 hPa 0,0 l/m 4,8 km/h (1 Bft) S-SW 202 0 min 0,000 mm 25 W/m 14,6 C 16,1 C 17,7 km/h (3 Bft) 100 %
30.05.2017 06:50 16,1 C 16,1 C 16,1 C 91 % 1012,2 hPa 0,0 l/m 1,6 km/h (1 Bft) S-SW 202 0 min 0,000 mm 40 W/m 14,6 C 16,1 C 11,3 km/h (2 Bft) 100 %
30.05.2017 07:00 16,2 C 16,1 C 16,2 C 91 % 1012,2 hPa 0,0 l/m 0,0 km/h (0 Bft) S 180 0 min 0,025 mm 58 W/m 14,7 C 16,2 C 8,0 km/h (2 Bft) 98 %
30.05.2017 07:10 16,3 C 16,1 C 16,3 C 91 % 1012,1 hPa 0,0 l/m 0,0 km/h (0 Bft) N 0 0 min 0,000 mm 84 W/m 14,8 C 16,3 C 0,0 km/h (0 Bft) 98 %
30.05.2017 07:20 16,6 C 16,3 C 16,6 C 91 % 1012,1 hPa 0,0 l/m 0,0 km/h (0 Bft) N 0 0 min 0,000 mm 109 W/m 15,1 C 16,6 C 0,0 km/h (0 Bft) 98 %
30.05.2017 07:30 16,8 C 16,6 C 16,8 C 91 % 1012,1 hPa 0,0 l/m 0,0 km/h (0 Bft) N 0 0 min 0,000 mm 111 W/m 15,3 C 16,8 C 0,0 km/h (0 Bft) 99 %
30.05.2017 07:40 17,1 C 16,8 C 17,1 C 90 % 1012,1 hPa 0,0 l/m 0,0 km/h (0 Bft) O 90 0 min 0,000 mm 111 W/m 15,4 C 17,1 C 1,6 km/h (1 Bft) 100 %
30.05.2017 07:50 17,3 C 17,1 C 17,3 C 91 % 1012,1 hPa 0,0 l/m 0,0 km/h (0 Bft) N 0 0 min 0,000 mm 111 W/m 15,8 C 17,3 C 0,0 km/h (0 Bft) 98 %
30.05.2017 08:00 17,4 C 17,3 C 17,4 C 91 % 1012,2 hPa 0,0 l/m 0,0 km/h (0 Bft) N 0 0 min 0,051 mm 83 W/m 15,9 C 17,4 C 0,0 km/h (0 Bft) 98 %
30.05.2017 08:10 17,3 C 17,3 C 17,4 C 91 % 1012,4 hPa 0,0 l/m 0,0 km/h (0 Bft) N 0 0 min 0,000 mm 60 W/m 15,8 C 17,3 C 0,0 km/h (0 Bft) 97 %
30.05.2017 08:20 17,3 C 17,3 C 17,3 C 91 % 1012,4 hPa 0,0 l/m 0,0 km/h (0 Bft) N 0 0 min 0,000 mm 60 W/m 15,8 C 17,3 C 0,0 km/h (0 Bft) 97 %
30.05.2017 08:30 17,4 C 17,3 C 17,4 C 91 % 1012,1 hPa 0,0 l/m 0,0 km/h (0 Bft) N 0 0 min 0,000 mm 74 W/m 15,9 C 17,4 C 0,0 km/h (0 Bft) 98 %
30.05.2017 08:40 17,6 C 17,4 C 17,6 C 91 % 1012,4 hPa 0,0 l/m 0,0 km/h (0 Bft) N 0 0 min 0,000 mm 100 W/m 16,1 C 17,6 C 0,0 km/h (0 Bft) 98 %
30.05.2017 08:50 17,8 C 17,6 C 17,8 C 91 % 1012,5 hPa 0,0 l/m 0,0 km/h (0 Bft) N 0 0 min 0,000 mm 120 W/m 16,3 C 17,8 C 0,0 km/h (0 Bft) 97 %
30.05.2017 09:00 17,8 C 17,8 C 17,8 C 91 % 1012,7 hPa 0,0 l/m 0,0 km/h (0 Bft) O-SO 112 0 min 0,051 mm 91 W/m 16,3 C 17,8 C 1,6 km/h (1 Bft) 97 %
30.05.2017 09:10 17,7 C 17,7 C 17,8 C 91 % 1012,6 hPa 0,0 l/m 1,6 km/h (1 Bft) SO 135 0 min 0,000 mm 83 W/m 16,2 C 17,7 C 6,4 km/h (2 Bft) 98 %
30.05.2017 09:20 17,7 C 17,7 C 17,7 C 91 % 1012,7 hPa 0,0 l/m 0,0 km/h (0 Bft) SO 135 0 min 0,000 mm 107 W/m 16,2 C 17,7 C 1,6 km/h (1 Bft) 97 %
30.05.2017 09:30 18,0 C 17,7 C 18,0 C 91 % 1012,7 hPa 0,0 l/m 0,0 km/h (0 Bft) S-SO 157 10 min 0,000 mm 160 W/m 16,5 C 18,0 C 4,8 km/h (1 Bft) 98 %
30.05.2017 09:40 18,2 C 18,0 C 18,2 C 91 % 1012,8 hPa 0,0 l/m 0,0 km/h (0 Bft) N 0 10 min 0,000 mm 169 W/m 16,7 C 18,2 C 0,0 km/h (0 Bft) 98 %
30.05.2017 09:50 18,6 C 18,2 C 18,6 C 91 % 1013,0 hPa 0,0 l/m 0,0 km/h (0 Bft) N 0 10 min 0,000 mm 158 W/m 17,1 C 18,6 C 0,0 km/h (0 Bft) 98 %
30.05.2017 10:00 18,6 C 18,6 C 18,7 C 91 % 1013,0 hPa 0,0 l/m 0,0 km/h (0 Bft) N 0 10 min 0,076 mm 213 W/m 17,1 C 18,6 C 0,0 km/h (0 Bft) 98 %
30.05.2017 10:10 18,7 C 18,6 C 18,8 C 91 % 1012,9 hPa 0,0 l/m 0,0 km/h (0 Bft) N 0 10 min 0,000 mm 262 W/m 17,2 C 18,7 C 0,0 km/h (0 Bft) 97 %
30.05.2017 10:20 19,1 C 18,7 C 19,1 C 91 % 1013,0 hPa 0,0 l/m 0,0 km/h (0 Bft) S-SO 157 10 min 0,000 mm 323 W/m 17,6 C 19,1 C 3,2 km/h (1 Bft) 98 %
30.05.2017 10:30 19,6 C 19,1 C 19,6 C 90 % 1013,0 hPa 0,2 l/m 1,6 km/h (1 Bft) S-SW 202 10 min 0,000 mm 432 W/m 17,9 C 19,6 C 8,0 km/h (2 Bft) 97 %
30.05.2017 10:40 20,2 C 19,6 C 20,2 C 90 % 1013,1 hPa 0,0 l/m 0,0 km/h (0 Bft) S-SW 202 10 min 0,000 mm 524 W/m 18,5 C 20,2 C 1,6 km/h (1 Bft) 97 %
30.05.2017 10:50 20,5 C 20,2 C 20,5 C 89 % 1013,1 hPa 0,0 l/m 1,6 km/h (1 Bft) S 180 10 min 0,000 mm 441 W/m 18,6 C 20,5 C 8,0 km/h (2 Bft) 97 %
30.05.2017 11:00 20,7 C 20,6 C 20,7 C 89 % 1013,2 hPa 0,0 l/m 0,0 km/h (0 Bft) S-SO 157 10 min 0,203 mm 343 W/m 18,8 C 20,7 C 8,0 km/h (2 Bft) 96 %
30.05.2017 11:10 20,8 C 20,7 C 20,8 C 88 % 1013,2 hPa 0,0 l/m 1,6 km/h (1 Bft) S-SO 157 10 min 0,000 mm 267 W/m 18,7 C 20,8 C 8,0 km/h (2 Bft) 98 %
30.05.2017 11:20 20,8 C 20,7 C 20,8 C 88 % 1013,1 hPa 0,0 l/m 1,6 km/h (1 Bft) S-SO 157 10 min 0,000 mm 236 W/m 18,7 C 20,8 C 8,0 km/h (2 Bft) 97 %
30.05.2017 11:30 20,9 C 20,8 C 20,9 C 88 % 1013,2 hPa 0,0 l/m 0,0 km/h (0 Bft) S-SO 157 10 min 0,000 mm 236 W/m 18,8 C 20,9 C 4,8 km/h (1 Bft) 98 %
30.05.2017 11:40 21,1 C 20,9 C 21,1 C 87 % 1013,2 hPa 0,0 l/m 0,0 km/h (0 Bft) S-SO 157 10 min 0,000 mm 316 W/m 18,8 C 21,1 C 1,6 km/h (1 Bft) 97 %
30.05.2017 11:50 21,3 C 21,1 C 21,3 C 86 % 1013,2 hPa 0,0 l/m 0,0 km/h (0 Bft) S-SO 157 10 min 0,000 mm 304 W/m 18,9 C 21,3 C 1,6 km/h (1 Bft) 97 %
30.05.2017 12:00 21,4 C 21,3 C 21,4 C 86 % 1013,2 hPa 0,0 l/m 0,0 km/h (0 Bft) S 180 10 min 0,152 mm 241 W/m 19,0 C 21,4 C 6,4 km/h (2 Bft) 97 %
30.05.2017 12:10 21,5 C 21,4 C 21,5 C 85 % 1013,1 hPa 0,0 l/m 0,0 km/h (0 Bft) S-SO 157 10 min 0,000 mm 244 W/m 18,9 C 21,5 C 4,8 km/h (1 Bft) 98 %
30.05.2017 12:20 21,8 C 21,5 C 21,8 C 85 % 1013,1 hPa 0,0 l/m 0,0 km/h (0 Bft) N 0 10 min 0,000 mm 390 W/m 19,2 C 21,8 C 0,0 km/h (0 Bft) 98 %
30.05.2017 12:30 22,4 C 21,8 C 22,4 C 83 % 1013,1 hPa 0,0 l/m 1,6 km/h (1 Bft) S 180 10 min 0,000 mm 1069 W/m 19,4 C 22,4 C 9,7 km/h (2 Bft) 97 %
30.05.2017 12:40 22,9 C 22,4 C 22,9 C 80 % 1013,2 hPa 0,0 l/m 6,4 km/h (2 Bft) S 180 10 min 0,000 mm 545 W/m 19,3 C 22,9 C 14,5 km/h (3 Bft) 98 %
30.05.2017 12:50 23,2 C 22,9 C 23,2 C 82 % 1013,0 hPa 0,0 l/m 1,6 km/h (1 Bft) S 180 10 min 0,000 mm 1097 W/m 19,9 C 23,2 C 11,3 km/h (2 Bft) 97 %
30.05.2017 13:00 23,8 C 23,2 C 23,8 C 76 % 1013,0 hPa 0,0 l/m 1,6 km/h (1 Bft) S 180 10 min 0,356 mm 1074 W/m 19,3 C 23,8 C 11,3 km/h (2 Bft) 97 %
30.05.2017 13:10 24,3 C 23,8 C 24,3 C 78 % 1012,9 hPa 0,0 l/m 4,8 km/h (1 Bft) S 180 10 min 0,000 mm 930 W/m 20,2 C 24,3 C 16,1 km/h (3 Bft) 98 %
30.05.2017 13:20 24,8 C 24,3 C 24,8 C 79 % 1013,0 hPa 0,0 l/m 1,6 km/h (1 Bft) S-SO 157 10 min 0,000 mm 904 W/m 20,9 C 24,8 C 11,3 km/h (2 Bft) 98 %
30.05.2017 13:30 25,1 C 24,7 C 25,1 C 74 % 1012,8 hPa 0,0 l/m 3,2 km/h (1 Bft) S-SO 157 10 min 0,000 mm 905 W/m 20,1 C 25,1 C 11,3 km/h (2 Bft) 98 %
30.05.2017 13:40 25,4 C 25,1 C 25,4 C 77 % 1012,7 hPa 0,0 l/m 3,2 km/h (1 Bft) S-SW 202 10 min 0,000 mm 900 W/m 21,1 C 25,4 C 16,1 km/h (3 Bft) 97 %
30.05.2017 13:50 25,9 C 25,4 C 25,9 C 74 % 1012,8 hPa 0,0 l/m 3,2 km/h (1 Bft) S-SW 202 10 min 0,000 mm 896 W/m 20,9 C 25,9 C 16,1 km/h (3 Bft) 98 %
30.05.2017 14:00 26,0 C 25,9 C 26,0 C 73 % 1012,8 hPa 0,0 l/m 3,2 km/h (1 Bft) S-SW 202 10 min 0,559 mm 891 W/m 20,8 C 26,0 C 11,3 km/h (2 Bft) 98 %
30.05.2017 14:10 26,1 C 26,0 C 26,2 C 74 % 1012,6 hPa 0,0 l/m 1,6 km/h (1 Bft) S 180 10 min 0,000 mm 937 W/m 21,1 C 26,1 C 11,3 km/h (2 Bft) 98 %
30.05.2017 14:20 26,2 C 26,1 C 26,2 C 72 % 1012,3 hPa 0,0 l/m 3,2 km/h (1 Bft) SO 135 10 min 0,000 mm 954 W/m 20,7 C 26,2 C 11,3 km/h (2 Bft) 98 %
30.05.2017 14:30 26,5 C 26,2 C 26,5 C 71 % 1012,3 hPa 0,0 l/m 1,6 km/h (1 Bft) SW 225 10 min 0,000 mm 874 W/m 20,8 C 26,5 C 14,5 km/h (3 Bft) 98 %
30.05.2017 14:40 26,9 C 26,5 C 26,9 C 68 % 1012,2 hPa 0,0 l/m 3,2 km/h (1 Bft) S 180 10 min 0,000 mm 863 W/m 20,5 C 26,9 C 12,9 km/h (3 Bft) 98 %
30.05.2017 14:50 26,7 C 26,7 C 26,9 C 66 % 1011,9 hPa 0,0 l/m 6,4 km/h (2 Bft) S-SW 202 10 min 0,000 mm 858 W/m 19,8 C 26,7 C 17,7 km/h (3 Bft) 97 %
30.05.2017 15:00 26,7 C 26,7 C 26,7 C 66 % 1011,7 hPa 0,0 l/m 6,4 km/h (2 Bft) S 180 10 min 0,533 mm 854 W/m 19,8 C 26,7 C 22,5 km/h (4 Bft) 98 %
30.05.2017 15:10 26,8 C 26,7 C 26,8 C 65 % 1011,8 hPa 0,0 l/m 8,0 km/h (2 Bft) S 180 10 min 0,000 mm 870 W/m 19,7 C 26,5 C 19,3 km/h (3 Bft) 98 %
30.05.2017 15:20 26,6 C 26,6 C 26,8 C 68 % 1012,0 hPa 0,0 l/m 9,7 km/h (2 Bft) S-SW 202 10 min 0,000 mm 445 W/m 20,2 C 26,0 C 22,5 km/h (4 Bft) 97 %
30.05.2017 15:30 26,8 C 26,6 C 26,9 C 60 % 1012,4 hPa 0,0 l/m 11,3 km/h (2 Bft) W-SW 247 10 min 0,000 mm 522 W/m 18,4 C 26,0 C 25,7 km/h (4 Bft) 98 %
30.05.2017 15:40 26,2 C 26,2 C 26,8 C 60 % 1012,7 hPa 0,0 l/m 19,3 km/h (3 Bft) NW 315 10 min 0,000 mm 366 W/m 17,8 C 24,3 C 35,4 km/h (5 Bft) 98 %
30.05.2017 15:50 26,0 C 26,0 C 26,1 C 60 % 1012,3 hPa 0,0 l/m 16,1 km/h (3 Bft) NW 315 10 min 0,000 mm 696 W/m 17,6 C 24,4 C 29,0 km/h (5 Bft) 100 %
30.05.2017 16:00 26,0 C 25,9 C 26,0 C 66 % 1012,1 hPa 0,0 l/m 11,3 km/h (2 Bft) NW 315 10 min 0,356 mm 867 W/m 19,1 C 25,0 C 24,1 km/h (4 Bft) 99 %
30.05.2017 16:20 26,7 C 25,9 C 26,7 C 63 % 1012,2 hPa 0,0 l/m 12,7 km/h (3 Bft) W-NW 286 20 min 0,000 mm 705 W/m 19,1 C 25,7 C 24,1 km/h (4 Bft) 100 %
30.05.2017 16:30 26,8 C 26,7 C 26,8 C 54 % 1012,2 hPa 0,0 l/m 11,1 km/h (2 Bft) W-NW 285 10 min 0,000 mm 462 W/m 16,7 C 26,0 C 25,7 km/h (4 Bft) 100 %
30.05.2017 16:40 26,8 C 26,8 C 26,8 C 55 % 1012,2 hPa 0,0 l/m 11,1 km/h (2 Bft) W 269 10 min 0,000 mm 171 W/m 17,0 C 26,0 C 20,9 km/h (4 Bft) 100 %
30.05.2017 16:50 26,6 C 26,6 C 26,8 C 54 % 1012,6 hPa 0,0 l/m 10,9 km/h (2 Bft) W-NW 299 10 min 0,000 mm 292 W/m 16,5 C 25,8 C 24,1 km/h (4 Bft) 100 %
30.05.2017 17:00 26,6 C 26,5 C 26,6 C 55 % 1012,6 hPa 0,0 l/m 12,5 km/h (3 Bft) W-NW 294 0 min 0,307 mm 142 W/m 16,8 C 25,6 C 27,4 km/h (4 Bft) 100 %
30.05.2017 17:10 26,1 C 26,1 C 26,6 C 57 % 1013,0 hPa 0,0 l/m 13,8 km/h (3 Bft) NW 323 0 min 0,000 mm 130 W/m 16,9 C 24,8 C 29,0 km/h (5 Bft) 100 %
30.05.2017 17:20 25,3 C 25,3 C 26,1 C 60 % 1013,1 hPa 0,0 l/m 6,7 km/h (2 Bft) W-NW 290 10 min 0,000 mm 241 W/m 17,0 C 25,2 C 17,7 km/h (3 Bft) 100 %
30.05.2017 17:30 24,7 C 24,7 C 25,3 C 63 % 1013,1 hPa 0,0 l/m 6,3 km/h (2 Bft) W-NW 291 10 min 0,000 mm 156 W/m 17,2 C 24,7 C 16,1 km/h (3 Bft) 100 %
30.05.2017 17:40 24,2 C 24,2 C 24,7 C 63 % 1012,8 hPa 0,0 l/m 4,2 km/h (1 Bft) W 277 0 min 0,000 mm 149 W/m 16,7 C 24,2 C 11,3 km/h (2 Bft) 100 %
30.05.2017 17:50 23,9 C 23,9 C 24,2 C 68 % 1012,8 hPa 0,0 l/m 2,1 km/h (1 Bft) W 277 0 min 0,000 mm 144 W/m 17,6 C 23,9 C 6,4 km/h (2 Bft) 100 %
30.05.2017 18:00 23,8 C 23,8 C 24,0 C 68 % 1012,8 hPa 0,0 l/m 0,8 km/h (0 Bft) W-NW 287 0 min 0,127 mm 70 W/m 17,5 C 23,8 C 4,8 km/h (1 Bft) 100 %
30.05.2017 18:10 23,3 C 23,3 C 23,8 C 69 % 1013,0 hPa 0,0 l/m 0,9 km/h (0 Bft) NW 304 0 min 0,000 mm 56 W/m 17,3 C 23,3 C 4,8 km/h (1 Bft) 100 %
30.05.2017 18:20 22,8 C 22,8 C 23,3 C 73 % 1013,1 hPa 0,0 l/m 0,8 km/h (0 Bft) NW 304 0 min 0,000 mm 149 W/m 17,7 C 22,8 C 4,8 km/h (1 Bft) 100 %
30.05.2017 18:30 22,5 C 22,5 C 22,8 C 75 % 1013,0 hPa 0,0 l/m 0,0 km/h (0 Bft) NW 304 0 min 0,000 mm 109 W/m 17,8 C 22,5 C 1,6 km/h (1 Bft) 100 %
30.05.2017 18:40 22,3 C 22,3 C 22,5 C 74 % 1013,0 hPa 0,0 l/m 0,0 km/h (0 Bft) W-NW 294 0 min 0,000 mm 23 W/m 17,4 C 22,3 C 0,0 km/h (0 Bft) 100 %
30.05.2017 18:50 21,9 C 21,9 C 22,3 C 75 % 1013,2 hPa 0,0 l/m 0,0 km/h (0 Bft) W-NW 294 0 min 0,000 mm 62 W/m 17,3 C 21,9 C 0,0 km/h (0 Bft) 100 %
30.05.2017 19:00 21,6 C 21,6 C 21,9 C 78 % 1013,3 hPa 0,0 l/m 0,0 km/h (0 Bft) W-NW 294 0 min 0,051 mm 49 W/m 17,6 C 21,6 C 0,0 km/h (0 Bft) 100 %
30.05.2017 19:10 21,4 C 21,4 C 21,6 C 79 % 1013,3 hPa 0,0 l/m 0,0 km/h (0 Bft) W-NW 294 0 min 0,000 mm 60 W/m 17,6 C 21,4 C 0,0 km/h (0 Bft) 100 %
30.05.2017 19:20 21,4 C 21,3 C 21,4 C 79 % 1013,4 hPa 0,0 l/m 0,0 km/h (0 Bft) W-NW 294 0 min 0,000 mm 125 W/m 17,6 C 21,4 C 0,0 km/h (0 Bft) 100 %
30.05.2017 19:30 21,4 C 21,3 C 21,4 C 82 % 1013,3 hPa 0,0 l/m 0,0 km/h (0 Bft) W-NW 294 0 min 0,000 mm 65 W/m 18,2 C 21,4 C 0,0 km/h (0 Bft) 100 %
30.05.2017 19:40 21,1 C 21,1 C 21,4 C 80 % 1013,4 hPa 0,0 l/m 0,0 km/h (0 Bft) W-NW 295 0 min 0,000 mm 84 W/m 17,5 C 21,1 C 0,0 km/h (0 Bft) 100 %
30.05.2017 19:50 21,1 C 21,1 C 21,1 C 82 % 1013,6 hPa 0,0 l/m 0,0 km/h (0 Bft) W-NW 291 0 min 0,000 mm 121 W/m 17,9 C 21,1 C 0,0 km/h (0 Bft) 100 %
30.05.2017 20:00 21,3 C 21,1 C 21,3 C 82 % 1013,6 hPa 0,0 l/m 0,0 km/h (0 Bft) W-NW 291 0 min 0,051 mm 146 W/m 18,1 C 21,3 C 0,0 km/h (0 Bft) 100 %
30.05.2017 20:10 21,6 C 21,3 C 21,6 C 81 % 1013,7 hPa 0,0 l/m 0,0 km/h (0 Bft) W-NW 291 0 min 0,000 mm 105 W/m 18,2 C 21,6 C 1,6 km/h (1 Bft) 100 %
30.05.2017 20:20 21,7 C 21,6 C 21,7 C 81 % 1013,7 hPa 0,0 l/m 0,4 km/h (0 Bft) W-NW 292 0 min 0,000 mm 65 W/m 18,3 C 21,7 C 4,8 km/h (1 Bft) 100 %
30.05.2017 20:30 21,8 C 21,7 C 21,8 C 80 % 1014,1 hPa 0,0 l/m 1,6 km/h (1 Bft) W-NW 290 0 min 0,000 mm 95 W/m 18,2 C 21,8 C 6,4 km/h (2 Bft) 100 %
30.05.2017 20:40 21,9 C 21,8 C 21,9 C 79 % 1014,1 hPa 0,0 l/m 2,4 km/h (1 Bft) W-NW 291 0 min 0,000 mm 49 W/m 18,1 C 21,9 C 9,7 km/h (2 Bft) 100 %
30.05.2017 20:50 21,9 C 21,9 C 21,9 C 79 % 1014,1 hPa 0,0 l/m 2,6 km/h (1 Bft) W 273 0 min 0,000 mm 47 W/m 18,1 C 21,9 C 8,0 km/h (2 Bft) 100 %
30.05.2017 21:00 21,8 C 21,8 C 21,9 C 80 % 1014,1 hPa 0,0 l/m 1,6 km/h (1 Bft) W 273 0 min 0,051 mm 23 W/m 18,2 C 21,8 C 4,8 km/h (1 Bft) 100 %
30.05.2017 21:10 21,6 C 21,6 C 21,8 C 82 % 1014,2 hPa 0,0 l/m 0,0 km/h (0 Bft) W 270 0 min 0,000 mm 21 W/m 18,4 C 21,6 C 3,2 km/h (1 Bft) 100 %
30.05.2017 21:20 21,3 C 21,3 C 21,6 C 82 % 1014,3 hPa 0,0 l/m 0,0 km/h (0 Bft) N 0 0 min 0,000 mm 14 W/m 18,1 C 21,3 C 0,0 km/h (0 Bft) 100 %
30.05.2017 21:30 21,1 C 21,1 C 21,3 C 83 % 1014,5 hPa 0,0 l/m 0,0 km/h (0 Bft) N 0 0 min 0,000 mm 5 W/m 18,1 C 21,1 C 0,0 km/h (0 Bft) 100 %
30.05.2017 21:40 20,8 C 20,8 C 21,1 C 84 % 1014,5 hPa 0,0 l/m 0,0 km/h (0 Bft) W 270 0 min 0,000 mm 0 W/m 18,0 C 20,8 C 4,8 km/h (1 Bft) 100 %
30.05.2017 21:50 20,6 C 20,6 C 20,8 C 85 % 1014,6 hPa 0,0 l/m 0,0 km/h (0 Bft) W 270 0 min 0,000 mm 0 W/m 18,0 C 20,6 C 1,6 km/h (1 Bft) 100 %
30.05.2017 22:00 20,4 C 20,3 C 20,6 C 86 % 1014,7 hPa 0,0 l/m 0,0 km/h (0 Bft) N 0 0 min 0,000 mm 0 W/m 18,0 C 20,4 C 0,0 km/h (0 Bft) 100 %
30.05.2017 22:10 20,1 C 20,1 C 20,3 C 86 % 1015,0 hPa 0,0 l/m 0,0 km/h (0 Bft) W 270 0 min 0,000 mm 0 W/m 17,7 C 20,1 C 4,8 km/h (1 Bft) 100 %
30.05.2017 22:20 19,7 C 19,7 C 20,1 C 87 % 1015,2 hPa 0,0 l/m 1,6 km/h (1 Bft) N-NW 337 0 min 0,000 mm 0 W/m 17,5 C 19,7 C 6,4 km/h (2 Bft) 98 %
30.05.2017 22:30 19,4 C 19,4 C 19,7 C 88 % 1015,2 hPa 0,0 l/m 0,0 km/h (0 Bft) N 0 0 min 0,000 mm 0 W/m 17,4 C 19,4 C 0,0 km/h (0 Bft) 99 %
30.05.2017 22:40 19,2 C 19,2 C 19,4 C 89 % 1015,3 hPa 0,0 l/m 0,0 km/h (0 Bft) N-NW 337 0 min 0,000 mm 0 W/m 17,3 C 19,2 C 1,6 km/h (1 Bft) 100 %
30.05.2017 22:50 19,0 C 19,0 C 19,2 C 89 % 1015,5 hPa 0,0 l/m 0,0 km/h (0 Bft) N 0 0 min 0,000 mm 0 W/m 17,1 C 19,0 C 0,0 km/h (0 Bft) 99 %
30.05.2017 23:00 18,8 C 18,8 C 19,0 C 89 % 1015,5 hPa 0,0 l/m 0,0 km/h (0 Bft) N 0 0 min 0,000 mm 0 W/m 16,9 C 18,8 C 0,0 km/h (0 Bft) 100 %
30.05.2017 23:10 18,6 C 18,6 C 18,8 C 89 % 1015,6 hPa 0,0 l/m 0,0 km/h (0 Bft) N 0 0 min 0,000 mm 0 W/m 16,7 C 18,6 C 0,0 km/h (0 Bft) 98 %
30.05.2017 23:20 18,3 C 18,3 C 18,5 C 89 % 1015,6 hPa 0,0 l/m 0,0 km/h (0 Bft) N 0 0 min 0,000 mm 0 W/m 16,5 C 18,3 C 0,0 km/h (0 Bft) 99 %
30.05.2017 23:30 18,2 C 18,2 C 18,3 C 90 % 1015,7 hPa 0,0 l/m 0,0 km/h (0 Bft) N 0 0 min 0,000 mm 0 W/m 16,5 C 18,2 C 0,0 km/h (0 Bft) 98 %
30.05.2017 23:40 18,0 C 18,0 C 18,2 C 90 % 1015,8 hPa 0,0 l/m 0,0 km/h (0 Bft) N 0 0 min 0,000 mm 0 W/m 16,3 C 18,0 C 0,0 km/h (0 Bft) 98 %
30.05.2017 23:50 17,8 C 17,8 C 18,1 C 90 % 1015,9 hPa 0,0 l/m 0,0 km/h (0 Bft) N 0 0 min 0,000 mm 0 W/m 16,1 C 17,8 C 0,0 km/h (0 Bft) 98 %
_ Min-Zeit 06:00 06:00 05:40 16:30 02:10 - 00:00 - - - - - 06:00 03:10 00:00 11:00
Minimum _ 16,0 C 16,0 C 16,1 C 54 % 1010,9 hPa - 0,0 km/h (0 Bft) - - - - - 14,4 C 15,8 C 0,0 km/h (0 Bft) 96 %
_ Max-Zeit 14:40 16:40 14:40 06:30 23:50 03:30 15:40 - - 16:20 14:00 12:50 14:10 14:40 03:10 00:10
Maximum _ 26,9 C 26,8 C 26,9 C 91 % 1015,9 hPa 1,2 l/m 19,3 km/h
NW (3 Bft)
- - 20 min 0,559 mm 1097 W/m 21,1 C 26,9 C 40,2 km/h
S-SW (6 Bft)
100 %
Durchschnitt _ 20,7 C 20,6 C 20,9 C 82 % 1012,8 hPa #5,6 l/m 2,4 km/h (1 Bft) S-SW - #7:50 h #3,099 mm 314 W/m 17,4 C 20,6 C 7,6 km/h (2 Bft) 99 %
PRIVATE WETTERSTATION BILLIGHEIM-ALLFELD - www.neckar-odenwald-wetter.de - Holger Sonntag